Time;durP1;ratioP1;P1;durP2;ratioP2;P2;SDS_P1;SDS_P2;PMS_P1;PMS_P2;Temp;Humidity;BMP_temperature;BMP_pressure;BME280_temperature;BME280_humidity;BME280_pressure;Samples;Min_cycle;Max_cycle;Signal;HPM_P1;HPM_P2
2022/10/04 00:01:18;;;;;;;5.18;4.88;;;;;;;8.72;100.00;101841.59;5929558;24;20639;-72
2022/10/04 00:04:03;;;;;;;7.25;5.60;;;;;;;9.05;100.00;101894.81;5902421;24;20092;-72
2022/10/04 00:06:34;;;;;;;5.55;5.18;;;;;;;9.03;100.00;101896.63;5903097;24;20025;-71
2022/10/04 00:09:16;;;;;;;6.07;5.63;;;;;;;9.02;100.00;101888.81;5837913;24;20018;-72
2022/10/04 00:11:54;;;;;;;5.32;4.95;;;;;;;8.99;100.00;101887.97;5899698;24;20012;-73
2022/10/04 00:14:40;;;;;;;5.68;5.28;;;;;;;8.39;100.00;101787.44;5917302;24;20016;-72
2022/10/04 00:17:23;;;;;;;5.10;4.70;;;;;;;8.57;100.00;101811.44;5890704;24;20028;-72
2022/10/04 00:20:03;;;;;;;5.82;5.40;;;;;;;8.61;100.00;101826.16;5920209;24;20062;-72
2022/10/04 00:22:32;;;;;;;5.43;5.03;;;;;;;8.52;100.00;101781.91;5922788;24;20067;-72
2022/10/04 00:25:12;;;;;;;5.20;4.90;;;;;;;9.16;100.00;101878.81;5923295;24;20031;-72
2022/10/04 00:28:15;;;;;;;5.47;4.97;;;;;;;9.14;100.00;101872.75;5973926;23;20028;-72
2022/10/04 00:31:11;;;;;;;5.20;4.90;;;;;;;8.86;100.00;101833.38;5943052;23;20078;-72
2022/10/04 00:34:10;;;;;;;7.35;5.15;;;;;;;9.12;100.00;101872.81;5987724;23;20035;-72
2022/10/04 00:37:01;;;;;;;5.47;5.00;;;;;;;9.10;100.00;101871.13;5952716;24;20622;-72
2022/10/04 00:40:20;;;;;;;6.28;5.70;;;;;;;9.05;100.00;101858.16;5949419;24;20038;-72
2022/10/04 00:46:10;;;;;;;5.90;5.45;;;;;;;9.09;100.00;101867.66;5931036;23;20014;-72
2022/10/04 00:49:05;;;;;;;5.38;5.03;;;;;;;9.12;100.00;101872.81;5972067;23;20173;-73
2022/10/04 00:51:59;;;;;;;4.72;4.43;;;;;;;8.83;100.00;101802.91;5973461;23;20361;-72
2022/10/04 00:55:07;;;;;;;5.78;5.38;;;;;;;9.06;100.00;101848.53;5969459;23;20020;-72
2022/10/04 00:57:53;;;;;;;6.40;5.85;;;;;;;9.04;100.00;101852.97;5953626;23;20034;-72
2022/10/04 01:00:32;;;;;;;5.50;5.03;;;;;;;9.03;100.00;101861.72;5964189;23;20052;-71
2022/10/04 01:03:31;;;;;;;5.40;5.00;;;;;;;8.76;100.00;101812.69;5965816;23;20119;-72
2022/10/04 01:06:07;;;;;;;5.43;5.10;;;;;;;8.98;100.00;101859.25;5923027;24;20083;-71
2022/10/04 01:09:07;;;;;;;6.50;6.00;;;;;;;8.01;100.00;101698.66;5975590;24;20040;-72
2022/10/04 01:11:57;;;;;;;5.60;5.20;;;;;;;8.98;100.00;101856.63;5970878;23;20783;-72
2022/10/04 01:15:07;;;;;;;5.80;5.47;;;;;;;8.93;100.00;101855.88;5974692;23;20361;-72
2022/10/04 01:17:37;;;;;;;5.47;5.13;;;;;;;8.64;100.00;101813.03;5971260;24;20049;-72
2022/10/04 01:20:33;;;;;;;5.10;4.82;;;;;;;8.91;100.00;101857.69;5964970;23;20668;-72
2022/10/04 01:23:02;;;;;;;5.72;5.32;;;;;;;8.90;100.00;101853.31;5948663;24;20099;-71
2022/10/04 01:26:04;;;;;;;5.90;5.50;;;;;;;8.49;100.00;101779.41;5925763;23;20087;-71
2022/10/04 01:28:37;;;;;;;5.63;5.22;;;;;;;8.91;100.00;101849.81;5962403;24;20007;-72
2022/10/04 01:31:04;;;;;;;5.35;5.03;;;;;;;8.90;100.00;101837.63;5960214;24;20040;-72
2022/10/04 01:33:35;;;;;;;5.30;4.90;;;;;;;8.51;100.00;101772.38;5965420;23;20035;-72
2022/10/04 01:36:08;;;;;;;5.85;5.45;;;;;;;8.80;100.00;101834.41;5941803;24;20462;-72
2022/10/04 01:38:44;;;;;;;6.07;5.55;;;;;;;8.56;100.00;101779.19;5969718;23;20037;-72
2022/10/04 01:41:16;;;;;;;10.18;5.28;;;;;;;8.83;100.00;101834.31;5959886;23;20016;-71
2022/10/04 01:43:48;;;;;;;5.03;4.75;;;;;;;8.90;100.00;101835.88;5954993;23;20028;-72
2022/10/04 01:46:35;;;;;;;5.15;4.75;;;;;;;8.85;100.00;101816.81;5986420;23;20023;-71
2022/10/04 01:49:09;;;;;;;4.88;4.60;;;;;;;8.89;100.00;101822.81;5943378;23;20023;-72
2022/10/04 01:51:41;;;;;;;;;;;;;;;8.86;100.00;101817.66;5978226;24;20012;-71
2022/10/04 01:54:17;;;;;;;4.82;4.53;;;;;;;8.46;100.00;101748.06;5977104;23;20390;-73
2022/10/04 01:56:56;;;;;;;5.85;5.35;;;;;;;8.83;100.00;101812.53;5981912;24;20622;-72
2022/10/04 01:59:28;;;;;;;5.95;5.55;;;;;;;8.39;100.00;101761.28;5942230;23;20019;-72
2022/10/04 02:02:30;;;;;;;5.53;5.13;;;;;;;8.77;100.00;101814.41;5973607;23;20608;-71
2022/10/04 02:05:06;;;;;;;5.28;4.93;;;;;;;8.28;100.00;101736.31;5970149;24;20034;-71
2022/10/04 02:07:40;;;;;;;4.88;4.60;;;;;;;8.42;100.00;101765.63;5968614;24;20016;-72
2022/10/04 02:10:38;;;;;;;5.40;5.00;;;;;;;8.47;100.00;101757.66;5928334;24;20024;-71
2022/10/04 02:13:32;;;;;;;;;;;;;;;;;;;;;
2022/10/04 02:16:13;;;;;;;5.47;5.18;;;;;;;8.72;100.00;101805.81;5946433;24;20619;-71
2022/10/04 02:19:15;;;;;;;6.43;5.25;;;;;;;8.66;100.00;101800.75;5972402;23;20039;-71
2022/10/04 02:22:06;;;;;;;5.43;5.03;;;;;;;8.53;100.00;101778.41;5973823;23;20081;-72
2022/10/04 02:24:42;;;;;;;5.20;4.90;;;;;;;8.57;100.00;101809.69;5940519;24;20463;-73
2022/10/04 02:27:36;;;;;;;5.13;4.82;;;;;;;8.54;100.00;101806.31;5956190;23;20613;-72
2022/10/04 02:30:12;;;;;;;4.97;4.78;;;;;;;8.51;100.00;101798.53;5995611;23;20026;-71
2022/10/04 02:32:59;;;;;;;5.13;4.72;;;;;;;8.49;100.00;101787.25;6005198;23;20023;-72
2022/10/04 02:35:43;;;;;;;5.63;5.13;;;;;;;8.50;100.00;101789.84;5985474;23;20027;-71
2022/10/04 02:38:52;;;;;;;5.55;5.07;;;;;;;8.50;100.00;101781.97;5981429;23;20026;-72
2022/10/04 02:42:01;;;;;;;5.07;4.68;;;;;;;8.53;100.00;101778.41;5951517;23;20023;-73
2022/10/04 02:44:57;;;;;;;5.72;5.32;;;;;;;8.54;100.00;101778.38;5936714;23;20043;-72
2022/10/04 02:48:01;;;;;;;5.28;5.00;;;;;;;8.57;100.00;101764.34;5918049;24;20047;-72
2022/10/04 02:50:47;;;;;;;5.13;4.82;;;;;;;8.59;100.00;101760.78;5898477;24;20024;-72
2022/10/04 02:53:31;;;;;;;5.28;4.95;;;;;;;7.82;100.00;101627.69;5893652;24;20036;-72
2022/10/04 02:56:04;;;;;;;4.80;4.57;;;;;;;8.61;100.00;101755.53;5891994;24;20628;-71
2022/10/04 02:59:08;;;;;;;5.80;5.40;;;;;;;8.59;100.00;101744.25;5915921;24;20440;-73
2022/10/04 03:01:58;;;;;;;4.95;4.65;;;;;;;8.55;100.00;101742.59;5908787;24;20310;-72
2022/10/04 03:04:39;;;;;;;5.10;4.80;;;;;;;8.55;100.00;101768.78;5871205;24;20044;-71
2022/10/04 03:07:25;;;;;;;5.10;4.78;;;;;;;8.34;100.00;101696.94;6005746;23;20469;-72
2022/10/04 03:10:10;;;;;;;5.15;4.85;;;;;;;8.50;100.00;101732.28;5983569;23;20099;-71
2022/10/04 03:12:55;;;;;;;5.03;4.75;;;;;;;7.26;100.00;101529.84;5980942;23;20024;-72
2022/10/04 03:15:37;;;;;;;6.60;4.82;;;;;;;8.54;100.00;101738.28;5974517;23;20003;-72
2022/10/04 03:18:09;;;;;;;5.10;4.80;;;;;;;8.03;100.00;101657.66;5969998;23;20107;-71
2022/10/04 03:20:43;;;;;;;5.55;5.15;;;;;;;8.47;100.00;101734.09;5977651;23;20038;-71
2022/10/04 03:23:33;;;;;;;6.68;5.47;;;;;;;8.45;100.00;101739.38;5999825;23;20508;-72
2022/10/04 03:26:30;;;;;;;5.45;5.13;;;;;;;8.43;100.00;101720.25;6010078;23;20046;-74
2022/10/04 03:29:21;;;;;;;12.20;5.25;;;;;;;7.36;100.00;101548.75;6000651;23;20094;-73
2022/10/04 03:32:00;;;;;;;4.95;4.55;;;;;;;8.05;100.00;101668.94;6001636;23;20050;-74
2022/10/04 03:35:01;;;;;;;4.78;4.55;;;;;;;8.36;100.00;101730.00;5927239;23;20120;-72
2022/10/04 03:37:53;;;;;;;5.03;4.72;;;;;;;8.03;100.00;101689.03;5971429;24;20028;-73
2022/10/04 03:40:36;;;;;;;5.15;4.85;;;;;;;8.19;100.00;101742.63;5966095;23;20189;-72
2022/10/04 03:43:05;;;;;;;5.15;4.85;;;;;;;7.97;100.00;101692.66;5975167;23;20438;-72
2022/10/04 03:45:48;;;;;;;4.85;4.63;;;;;;;7.17;100.00;101564.00;5976849;23;20031;-71
2022/10/04 03:48:34;;;;;;;5.22;4.93;;;;;;;8.07;100.00;101711.56;5970217;23;20034;-73
2022/10/04 03:51:18;;;;;;;5.35;5.03;;;;;;;8.08;100.00;101708.03;5909719;23;20035;-72
2022/10/04 03:53:59;;;;;;;4.93;4.68;;;;;;;8.06;100.00;101708.13;5995058;23;20541;-71
2022/10/04 03:56:38;;;;;;;5.75;5.28;;;;;;;7.94;100.00;101705.81;6003438;23;20027;-71
2022/10/04 03:59:16;;;;;;;5.50;5.10;;;;;;;6.41;100.00;101423.19;5966416;23;20024;-71
2022/10/04 04:02:18;;;;;;;4.75;4.55;;;;;;;8.04;100.00;101696.84;5982600;23;20026;-72
2022/10/04 04:05:16;;;;;;;4.82;4.53;;;;;;;8.05;100.00;101702.91;5977432;23;20035;-70
2022/10/04 04:08:13;;;;;;;4.45;4.25;;;;;;;7.85;100.00;101691.19;5983458;23;20031;-72
2022/10/04 04:10:56;;;;;;;5.13;4.82;;;;;;;7.75;100.00;101694.94;5959617;23;20025;-71
2022/10/04 04:13:49;;;;;;;4.32;4.13;;;;;;;7.87;100.00;101701.63;5966819;23;20085;-71
2022/10/04 04:16:27;;;;;;;5.72;5.05;;;;;;;7.92;100.00;101705.84;5944990;24;20086;-72
2022/10/04 04:19:01;;;;;;;4.65;4.35;;;;;;;7.78;100.00;101687.03;5995918;23;20099;-72
2022/10/04 04:21:35;;;;;;;4.82;4.53;;;;;;;7.86;100.00;101707.72;6004736;23;20043;-71
2022/10/04 04:24:20;;;;;;;5.32;4.93;;;;;;;7.81;100.00;101710.47;5957702;23;20344;-71
2022/10/04 04:27:04;;;;;;;4.88;4.63;;;;;;;7.79;100.00;101707.88;5968319;23;20403;-73
2022/10/04 04:30:04;;;;;;;5.43;5.00;;;;;;;7.83;100.00;101708.66;6000033;23;20503;-73
2022/10/04 04:32:43;;;;;;;4.38;4.10;;;;;;;7.85;100.00;101703.41;5995579;23;20020;-73
2022/10/04 04:35:37;;;;;;;7.20;6.70;;;;;;;7.95;100.00;101702.28;5998013;23;20022;-73
2022/10/04 04:38:28;;;;;;;5.43;5.13;;;;;;;7.73;100.00;101666.22;6001193;23;20019;-72
2022/10/04 04:41:25;;;;;;;4.57;4.38;;;;;;;7.92;100.00;101702.38;5974001;23;20015;-73
2022/10/04 04:43:57;;;;;;;5.00;4.70;;;;;;;7.58;100.00;101643.97;5938995;23;20041;-73
2022/10/04 04:46:30;;;;;;;4.63;4.33;;;;;;;7.01;100.00;101540.03;5959620;23;20051;-72
2022/10/04 04:49:04;;;;;;;4.80;4.60;;;;;;;7.89;100.00;101684.16;5961048;23;20016;-73
2022/10/04 04:51:34;;;;;;;4.75;4.45;;;;;;;7.02;100.00;101535.69;6000819;23;20030;-72
2022/10/04 04:54:06;;;;;;;4.85;4.53;;;;;;;6.88;100.00;101512.53;5974362;23;20024;-73
2022/10/04 04:56:51;;;;;;;5.00;4.70;;;;;;;7.86;100.00;101672.03;6003055;23;20098;-72
2022/10/04 04:59:26;;;;;;;4.95;4.65;;;;;;;7.85;100.00;101674.66;5964264;23;20374;-73
2022/10/04 05:02:35;;;;;;;5.22;4.78;;;;;;;7.82;100.00;101662.53;5955382;23;20345;-74
2022/10/04 05:05:35;;;;;;;5.25;4.75;;;;;;;7.78;100.00;101671.34;5949147;24;20026;-71
2022/10/04 05:08:26;;;;;;;5.10;4.70;;;;;;;7.74;100.00;101669.72;5996338;23;20131;-72
2022/10/04 05:10:56;;;;;;;4.47;4.18;;;;;;;7.72;100.00;101671.50;5975365;23;20490;-72
2022/10/04 05:13:46;;;;;;;4.97;4.70;;;;;;;7.69;100.00;101671.56;5999700;23;20007;-71
2022/10/04 05:16:39;;;;;;;4.50;4.20;;;;;;;7.65;100.00;101665.56;6004242;23;20109;-72
2022/10/04 05:19:39;;;;;;;4.57;4.18;;;;;;;7.49;100.00;101636.34;5954004;23;20107;-71
2022/10/04 05:22:33;;;;;;;4.10;3.90;;;;;;;7.36;100.00;101625.34;5963691;23;20052;-72
2022/10/04 05:25:08;;;;;;;4.70;4.38;;;;;;;7.64;100.00;101674.31;5993260;23;20039;-72
2022/10/04 05:27:53;;;;;;;5.07;4.78;;;;;;;7.61;100.00;101657.84;6009307;23;20027;-73
2022/10/04 05:33:57;;;;;;;5.05;4.75;;;;;;;7.02;100.00;101572.22;6001191;23;20023;-72
2022/10/04 05:36:30;;;;;;;5.05;4.85;;;;;;;7.58;100.00;101664.00;5996790;23;20016;-73
2022/10/04 05:39:16;;;;;;;6.22;4.60;;;;;;;7.57;100.00;101664.88;5990354;23;20596;-72
2022/10/04 05:42:00;;;;;;;5.20;4.80;;;;;;;7.55;100.00;101662.31;5993824;23;20085;-70
2022/10/04 05:44:35;;;;;;;4.75;4.55;;;;;;;7.29;100.00;101622.91;5998107;23;20023;-71
2022/10/04 05:47:06;;;;;;;5.80;5.40;;;;;;;7.59;100.00;101658.72;5973885;24;20543;-70
2022/10/04 05:49:42;;;;;;;5.18;4.88;;;;;;;7.56;100.00;101661.44;5993103;23;20058;-70
2022/10/04 05:52:49;;;;;;;4.35;4.13;;;;;;;7.52;100.00;101651.09;5998848;23;20044;-68
2022/10/04 05:55:40;;;;;;;5.03;4.63;;;;;;;7.52;100.00;101657.16;5876398;24;20033;-68
2022/10/04 05:58:48;;;;;;;4.45;4.25;;;;;;;7.51;100.00;101651.97;5887435;24;20040;-70
2022/10/04 06:01:37;;;;;;;5.10;4.70;;;;;;;7.54;100.00;101660.59;5992937;23;20015;-69
2022/10/04 06:04:24;;;;;;;4.40;4.20;;;;;;;7.55;100.00;101664.91;5968948;23;20063;-69
2022/10/04 06:06:59;;;;;;;4.80;4.50;;;;;;;6.64;100.00;101506.13;5995607;23;20033;-68
2022/10/04 06:09:45;;;;;;;6.07;5.15;;;;;;;7.21;100.00;101598.72;5971067;24;20023;-69
2022/10/04 06:12:29;;;;;;;4.25;4.05;;;;;;;7.67;100.00;101665.53;5995419;23;20110;-69
2022/10/04 06:15:26;;;;;;;4.85;4.45;;;;;;;7.72;100.00;101663.66;5994195;23;20027;-69
2022/10/04 06:18:14;;;;;;;5.30;4.82;;;;;;;7.60;100.00;101628.25;5974624;23;20086;-69
2022/10/04 06:20:53;;;;;;;6.03;5.65;;;;;;;7.78;100.00;101653.91;5996272;23;20019;-69
2022/10/04 06:23:22;;;;;;;4.35;4.15;;;;;;;7.88;100.00;101657.16;5974192;23;20027;-69
2022/10/04 06:26:04;;;;;;;4.72;4.43;;;;;;;7.97;100.00;101669.97;5987166;23;20108;-69
2022/10/04 06:28:52;;;;;;;6.68;5.68;;;;;;;7.78;100.00;101606.03;5987684;23;20032;-69
2022/10/04 06:31:48;;;;;;;5.63;5.20;;;;;;;8.09;100.00;101654.88;5964149;23;20032;-70
2022/10/04 06:34:17;;;;;;;5.43;4.90;;;;;;;8.08;100.00;101645.31;5983534;23;20019;-69
2022/10/04 06:37:09;;;;;;;4.07;3.88;;;;;;;7.92;100.00;101613.50;5979683;23;20098;-70
2022/10/04 06:39:43;;;;;;;4.80;4.40;;;;;;;7.66;100.00;101541.00;5970712;23;20662;-70
2022/10/04 06:42:26;;;;;;;5.85;5.38;;;;;;;8.31;100.00;101639.47;5967864;24;20660;-69
2022/10/04 06:45:05;;;;;;;4.93;4.63;;;;;;;8.41;100.00;101647.91;5996742;23;20019;-69
2022/10/04 06:47:55;;;;;;;5.60;5.20;;;;;;;8.41;100.00;101645.31;5996789;23;20031;-69
2022/10/04 06:50:34;;;;;;;5.85;5.35;;;;;;;8.41;100.00;101638.34;5995858;23;20360;-69
2022/10/04 06:53:28;;;;;;;5.10;4.78;;;;;;;8.62;100.00;101655.19;5959749;23;20035;-71
2022/10/04 06:56:04;;;;;;;5.47;5.13;;;;;;;8.74;100.00;101648.72;5994749;23;20035;-69
2022/10/04 06:58:47;;;;;;;6.13;5.68;;;;;;;8.92;100.00;101647.31;5998343;23;20019;-69
2022/10/04 07:01:26;;;;;;;;;;;;;;;9.09;100.00;101645.06;5995098;23;20015;-69
2022/10/04 07:04:21;;;;;;;5.18;4.88;;;;;;;9.13;100.00;101630.97;5988460;23;20210;-70
2022/10/04 07:10:07;;;;;;;6.28;5.78;;;;;;;9.66;100.00;101638.03;6000654;23;20693;-70
2022/10/04 07:12:42;;;;;;;7.03;6.43;;;;;;;9.79;100.00;101636.69;5996817;23;20023;-69
2022/10/04 07:15:19;;;;;;;6.13;5.75;;;;;;;9.88;100.00;101632.91;5996149;23;20042;-70
2022/10/04 07:17:47;;;;;;;7.20;6.70;;;;;;;10.01;100.00;101656.94;5994672;23;20035;-70
2022/10/04 07:20:21;;;;;;;5.95;5.55;;;;;;;9.90;100.00;101604.00;5972140;23;20035;-69
2022/10/04 07:22:57;;;;;;;6.78;6.30;;;;;;;10.03;100.00;101628.91;6002698;23;20027;-70
2022/10/04 07:25:30;;;;;;;6.20;5.70;;;;;;;10.24;100.00;101655.28;5972233;23;20019;-70
2022/10/04 07:31:08;;;;;;;6.32;5.85;;;;;;;10.19;100.00;101660.69;5965562;23;20099;-70
2022/10/04 07:33:47;;;;;;;5.93;5.40;;;;;;;10.03;100.00;101622.81;5999546;23;20027;-70
2022/10/04 07:36:24;;;;;;;6.80;6.20;;;;;;;10.17;100.00;101660.75;5993562;23;20589;-69
2022/10/04 07:38:59;;;;;;;7.65;6.80;;;;;;;10.15;100.00;101657.31;5993778;23;20067;-70
2022/10/04 07:41:30;;;;;;;6.88;6.35;;;;;;;9.90;100.00;101638.97;6002255;23;20031;-69
2022/10/04 07:44:30;;;;;;;8.05;6.22;;;;;;;9.63;100.00;101593.56;5991261;23;20068;-70
2022/10/04 07:47:19;;;;;;;5.55;5.13;;;;;;;8.96;100.00;101492.75;5984844;23;20046;-70
2022/10/04 07:49:50;;;;;;;5.65;5.20;;;;;;;9.54;100.00;101599.09;5995712;23;20043;-70
2022/10/04 07:52:47;;;;;;;7.15;6.65;;;;;;;9.97;100.00;101668.44;5969731;23;20051;-70
2022/10/04 07:55:22;;;;;;;6.90;6.30;;;;;;;9.72;100.00;101631.69;5992095;23;20031;-68
2022/10/04 07:58:15;;;;;;;6.35;5.85;;;;;;;10.01;100.00;101662.19;6002424;23;20408;-70
2022/10/04 08:01:00;;;;;;;7.45;6.85;;;;;;;9.82;100.00;101630.47;5992426;23;20031;-69
2022/10/04 08:04:04;;;;;;;6.80;6.20;;;;;;;10.09;100.00;101672.41;6002411;23;20037;-69
2022/10/04 08:06:56;;;;;;;5.75;5.35;;;;;;;10.08;100.00;101665.44;5985756;23;20055;-71
2022/10/04 08:09:32;;;;;;;6.05;5.65;;;;;;;10.16;100.00;101674.78;5953063;24;20011;-69
2022/10/04 08:12:02;;;;;;;6.18;5.78;;;;;;;10.32;100.00;101675.13;5997211;23;20607;-70
2022/10/04 08:14:38;;;;;;;7.55;6.40;;;;;;;10.43;100.00;101668.66;5992257;23;20039;-70
2022/10/04 08:17:28;;;;;;;7.13;6.00;;;;;;;10.43;100.00;101666.03;5991990;23;20039;-69
2022/10/04 08:20:24;;;;;;;7.28;6.63;;;;;;;10.58;100.00;101647.94;5969181;24;20107;-69
2022/10/04 08:22:59;;;;;;;7.63;6.93;;;;;;;10.61;100.00;101665.34;5998701;23;20039;-69
2022/10/04 08:25:49;;;;;;;8.05;6.82;;;;;;;10.62;100.00;101669.66;5999518;23;20019;-69
2022/10/04 08:31:26;;;;;;;12.20;6.47;;;;;;;10.85;100.00;101667.97;5996002;23;20011;-70
2022/10/04 08:34:11;;;;;;;6.38;5.97;;;;;;;10.96;100.00;101655.28;5936062;24;20020;-69
2022/10/04 08:37:14;;;;;;;6.88;6.38;;;;;;;11.08;100.00;101649.53;5930072;24;20059;-70
2022/10/04 08:39:56;;;;;;;6.43;6.00;;;;;;;11.07;100.00;101639.13;5982086;23;20018;-70
2022/10/04 08:42:34;;;;;;;6.50;6.03;;;;;;;11.09;100.00;101653.03;5967955;24;20022;-69
2022/10/04 08:45:38;;;;;;;6.05;5.60;;;;;;;11.13;100.00;101631.00;5995870;23;20720;-69
2022/10/04 08:48:24;;;;;;;6.80;5.40;;;;;;;11.59;100.00;101673.81;5960169;24;20091;-70
2022/10/04 08:51:11;;;;;;;7.95;6.78;;;;;;;11.78;100.00;101661.59;5993423;23;20099;-70
2022/10/04 08:54:00;;;;;;;6.05;5.57;;;;;;;11.95;100.00;101663.56;5965532;24;20102;-69
2022/10/04 08:56:49;;;;;;;6.90;6.22;;;;;;;12.04;100.00;101656.19;5992754;23;20019;-69
2022/10/04 08:59:56;;;;;;;6.10;5.70;;;;;;;12.16;100.00;101655.66;5966609;23;20028;-69
2022/10/04 09:03:00;;;;;;;8.25;7.15;;;;;;;12.21;100.00;101656.34;5946836;24;20012;-70
2022/10/04 09:05:55;;;;;;;6.00;5.60;;;;;;;11.43;100.00;101508.00;5970233;23;20450;-70
2022/10/04 09:09:01;;;;;;;6.00;5.55;;;;;;;12.47;100.00;101655.19;5946703;24;20476;-70
2022/10/04 09:11:50;;;;;;;8.75;6.05;;;;;;;12.69;100.00;101639.25;5960608;23;20522;-70
2022/10/04 09:14:56;;;;;;;6.30;5.80;;;;;;;12.60;100.00;101610.72;5995011;23;20043;-70
2022/10/04 09:17:32;;;;;;;7.82;7.13;;;;;;;12.87;100.00;101642.81;5968427;24;20028;-68
2022/10/04 09:20:20;;;;;;;7.45;6.85;;;;;;;12.56;100.00;101606.50;5976234;23;20034;-68
2022/10/04 09:23:23;;;;;;;6.68;6.10;;;;;;;13.09;100.00;101647.94;5965503;23;20672;-70
2022/10/04 09:26:22;;;;;;;6.68;6.18;;;;;;;13.21;100.00;101638.59;5984753;23;20522;-68
2022/10/04 09:29:09;;;;;;;7.57;7.00;;;;;;;13.21;100.00;101629.81;5968200;23;20038;-69
2022/10/04 09:31:46;;;;;;;7.40;5.90;;;;;;;13.26;100.00;101633.94;5936897;24;20021;-73
2022/10/04 09:34:22;;;;;;;7.10;6.40;;;;;;;13.54;100.00;101643.16;5968553;23;20091;-70
2022/10/04 09:37:28;;;;;;;5.88;5.40;;;;;;;13.83;100.00;101638.22;5972368;24;20016;-69
2022/10/04 09:40:33;;;;;;;6.32;5.72;;;;;;;13.90;100.00;101629.91;5943694;24;20018;-68
2022/10/04 09:43:06;;;;;;;6.13;5.70;;;;;;;13.79;100.00;101619.06;5963238;23;20605;-68
2022/10/04 09:45:35;;;;;;;;;;;;;;;13.67;100.00;101612.63;5969351;23;20039;-69
2022/10/04 09:48:04;;;;;;;7.80;6.43;;;;;;;13.74;100.00;101615.78;5938424;24;19907;-66
2022/10/04 09:50:57;;;;;;;8.75;6.82;;;;;;;13.91;100.00;101622.84;5971878;23;20450;-66
2022/10/04 09:53:48;;;;;;;6.50;6.03;;;;;;;14.24;100.00;101627.31;5931399;24;20654;-68
2022/10/04 09:56:39;;;;;;;6.53;6.03;;;;;;;14.59;100.00;101628.09;5936591;24;20020;-67
2022/10/04 09:59:25;;;;;;;7.85;7.15;;;;;;;14.75;100.00;101633.38;5963671;24;20019;-68
2022/10/04 10:02:09;;;;;;;15.48;7.90;;;;;;;14.68;100.00;101605.63;5964340;23;20843;-65
2022/10/04 10:05:01;;;;;;;6.50;6.00;;;;;;;14.60;100.00;101576.97;5968912;24;20023;-66
2022/10/04 10:07:49;;;;;;;7.72;7.13;;;;;;;15.03;100.00;101614.19;5971616;23;20020;-68
2022/10/04 10:16:24;;;;;;;8.45;6.22;;;;;;;14.94;97.69;101565.38;5962950;23;20059;-69
2022/10/04 10:19:28;;;;;;;6.63;6.10;;;;;;;15.42;98.34;101606.75;5965164;23;20582;-68
2022/10/04 10:22:09;;;;;;;9.50;6.35;;;;;;;15.53;95.49;101605.16;5963616;24;20127;-69
2022/10/04 10:25:07;;;;;;;6.75;6.30;;;;;;;15.54;94.44;101601.59;5970652;23;20078;-69
2022/10/04 10:28:05;;;;;;;10.30;6.85;;;;;;;15.67;94.19;101612.28;5969720;24;20028;-69
2022/10/04 10:30:56;;;;;;;8.43;7.55;;;;;;;15.84;91.46;101605.19;5985463;23;20023;-71
2022/10/04 10:33:51;;;;;;;7.82;7.10;;;;;;;15.95;90.81;101600.94;5965719;23;20640;-67
2022/10/04 10:36:40;;;;;;;6.57;6.07;;;;;;;16.11;92.55;101605.31;5996415;23;20679;-68
2022/10/04 10:39:23;;;;;;;7.07;6.47;;;;;;;15.87;90.82;101560.84;5997049;23;20023;-67
2022/10/04 10:42:24;;;;;;;7.32;6.22;;;;;;;16.35;90.37;101593.19;5993987;23;20086;-67
2022/10/04 10:44:50;;;;;;;7.03;6.30;;;;;;;16.40;89.84;101600.00;5989040;23;20019;-66
2022/10/04 10:47:43;;;;;;;7.18;6.40;;;;;;;16.41;87.67;101599.91;5971012;23;20106;-65
2022/10/04 10:50:29;;;;;;;6.65;6.15;;;;;;;16.49;86.57;101588.84;5938669;23;20015;-66
2022/10/04 10:53:19;;;;;;;8.82;6.70;;;;;;;16.23;87.56;101551.56;5999130;23;20119;-68
2022/10/04 10:55:47;;;;;;;6.88;6.30;;;;;;;16.49;84.85;101589.69;5996380;23;20027;-66
2022/10/04 10:58:43;;;;;;;6.97;6.43;;;;;;;16.42;85.64;101553.09;5973613;23;20031;-67
2022/10/04 11:01:35;;;;;;;7.88;5.90;;;;;;;16.72;85.88;101569.69;5995811;23;20038;-67
2022/10/04 11:04:29;;;;;;;6.67;6.00;;;;;;;16.96;81.73;101579.69;5991544;23;20636;-66
2022/10/04 11:07:01;;;;;;;8.25;6.13;;;;;;;17.03;84.91;101574.81;5998355;23;20078;-67
2022/10/04 11:09:56;;;;;;;6.82;6.43;;;;;;;17.12;84.52;101582.19;5960928;23;20502;-66
2022/10/04 11:12:33;;;;;;;7.00;6.40;;;;;;;17.07;80.97;101561.25;5993360;23;20518;-67
2022/10/04 11:15:35;;;;;;;6.78;6.15;;;;;;;17.11;83.96;101576.00;5999217;23;20027;-67
2022/10/04 11:18:36;;;;;;;6.55;5.93;;;;;;;17.21;83.08;101580.72;5971792;23;20089;-68
2022/10/04 11:21:20;;;;;;;7.03;6.35;;;;;;;17.43;84.39;101578.34;5999261;23;20034;-69
2022/10/04 11:24:05;;;;;;;6.63;6.18;;;;;;;17.68;80.92;101566.94;5967860;23;20067;-66
2022/10/04 11:27:08;;;;;;;7.70;6.10;;;;;;;17.78;80.88;101568.94;5994013;23;20112;-67
2022/10/04 11:30:02;;;;;;;6.60;6.00;;;;;;;17.93;81.06;101560.78;5969074;24;20028;-67
2022/10/04 11:33:08;;;;;;;6.15;5.65;;;;;;;18.09;78.83;101554.41;5970351;24;20038;-68
2022/10/04 11:35:50;;;;;;;6.10;5.70;;;;;;;18.16;78.19;101553.00;5949114;24;20474;-68
2022/10/04 11:38:47;;;;;;;6.53;6.13;;;;;;;18.32;77.82;101550.97;5974394;23;20077;-68
2022/10/04 11:41:28;;;;;;;6.63;6.13;;;;;;;18.45;75.77;101547.44;5947920;24;20012;-67
2022/10/04 11:44:01;;;;;;;6.82;6.38;;;;;;;18.38;75.34;101552.34;5963298;24;20036;-67
2022/10/04 11:47:12;;;;;;;6.43;6.03;;;;;;;18.27;74.86;101550.44;5939119;24;20029;-67
2022/10/04 11:49:55;;;;;;;6.35;5.85;;;;;;;18.01;76.51;101506.28;5940882;24;20011;-66
2022/10/04 11:52:39;;;;;;;6.85;6.25;;;;;;;17.91;76.83;101480.38;5949136;23;20051;-67
2022/10/04 11:55:43;;;;;;;6.68;6.28;;;;;;;18.46;74.58;101536.72;5969820;23;20039;-66
2022/10/04 11:58:31;;;;;;;6.43;6.03;;;;;;;18.57;75.88;101543.06;5969942;23;20704;-66
2022/10/04 12:01:10;;;;;;;6.63;6.13;;;;;;;18.75;73.75;101549.69;5969306;24;20035;-68
2022/10/04 12:03:46;;;;;;;6.65;6.15;;;;;;;18.42;72.61;101558.28;5931948;24;20145;-67
2022/10/04 12:06:37;;;;;;;7.60;7.05;;;;;;;18.04;76.95;101522.00;5966388;24;20608;-67
2022/10/04 12:09:29;;;;;;;7.00;6.20;;;;;;;18.11;75.94;101534.75;5967177;23;20078;-68
2022/10/04 12:15:17;;;;;;;6.60;6.20;;;;;;;18.70;75.25;101562.44;5969420;23;20035;-67
2022/10/04 12:18:11;;;;;;;7.07;6.38;;;;;;;18.76;72.29;101555.84;5945045;24;20027;-67
2022/10/04 12:20:56;;;;;;;6.22;5.72;;;;;;;18.88;73.85;101549.66;5968721;23;20047;-67
2022/10/04 12:23:47;;;;;;;6.13;5.82;;;;;;;18.77;70.25;101541.59;5967434;24;20026;-67
2022/10/04 12:26:31;;;;;;;6.15;5.75;;;;;;;18.67;72.33;101549.41;5981982;23;20028;-67
2022/10/04 12:29:16;;;;;;;6.32;5.93;;;;;;;18.79;72.69;101540.56;5917801;24;20019;-68
2022/10/04 12:32:32;;;;;;;5.82;5.53;;;;;;;19.07;72.85;101534.03;5937466;24;20624;-67
2022/10/04 12:35:10;;;;;;;6.43;6.03;;;;;;;19.37;72.71;101519.38;5920212;24;20019;-69
2022/10/04 12:38:22;;;;;;;6.68;6.00;;;;;;;19.61;71.54;101519.31;5963665;23;20039;-67
2022/10/04 12:40:51;;;;;;;6.55;6.05;;;;;;;19.58;69.22;101510.69;5964090;24;20810;-67
2022/10/04 12:43:34;;;;;;;6.90;6.50;;;;;;;19.56;70.44;101507.31;5933007;24;20031;-67
2022/10/04 12:46:06;;;;;;;6.10;5.68;;;;;;;19.65;69.39;101503.94;5938550;24;20035;-68
2022/10/04 12:48:53;;;;;;;6.60;6.10;;;;;;;19.58;69.45;101506.22;5938356;24;20352;-68
2022/10/04 12:51:46;;;;;;;5.57;5.28;;;;;;;19.69;68.84;101510.72;5968120;23;20104;-67
2022/10/04 12:54:32;;;;;;;6.63;6.00;;;;;;;19.67;71.38;101499.34;5968441;23;20023;-67
2022/10/04 12:57:28;;;;;;;6.78;6.30;;;;;;;19.34;70.67;101429.09;5955821;23;20485;-67
2022/10/04 13:00:00;;;;;;;6.80;6.30;;;;;;;19.87;70.43;101493.31;5962097;23;20566;-68
2022/10/04 13:02:36;;;;;;;6.80;6.15;;;;;;;19.98;69.11;101488.97;5945238;24;20100;-67
2022/10/04 13:05:40;;;;;;;6.68;6.07;;;;;;;20.07;67.89;101485.56;5967351;23;20540;-67
2022/10/04 13:08:29;;;;;;;6.40;6.00;;;;;;;19.71;69.28;101495.50;5967270;24;20086;-68
2022/10/04 13:11:25;;;;;;;6.45;6.05;;;;;;;19.84;69.97;101493.56;5967367;23;20014;-68
2022/10/04 13:14:17;;;;;;;6.75;6.20;;;;;;;20.07;69.29;101490.91;5895201;24;20032;-67
2022/10/04 13:16:52;;;;;;;6.90;6.40;;;;;;;20.09;68.05;101488.97;5968621;23;20043;-67
2022/10/04 13:19:58;;;;;;;6.38;5.97;;;;;;;19.85;70.21;101475.78;5935522;24;20345;-67